Time;durP1;ratioP1;P1;durP2;ratioP2;P2;SDS_P1;SDS_P2;PMS_P1;PMS_P2;Temp;Humidity;BMP_temperature;BMP_pressure;BME280_temperature;BME280_humidity;BME280_pressure;Samples;Min_cycle;Max_cycle;Signal;HPM_P1;HPM_P2
2022/12/08 00:01:38;;;;;;;13.73;10.52;;;;;;;17.79;57.92;98776.81;4899543;29;20035;-76
2022/12/08 00:04:04;;;;;;;14.10;11.05;;;;;;;17.77;57.58;98774.25;4882395;29;20115;-76
2022/12/08 00:09:22;;;;;;;14.50;10.52;;;;;;;17.77;57.88;98773.44;4899465;29;20064;-76
2022/12/08 00:11:58;;;;;;;13.68;10.38;;;;;;;17.71;57.90;98770.19;4898810;29;20036;-77
2022/12/08 00:14:38;;;;;;;12.65;10.35;;;;;;;17.72;57.76;98760.47;4898997;29;20124;-76
2022/12/08 00:17:05;;;;;;;12.65;9.70;;;;;;;17.73;57.50;98756.94;4899380;29;20396;-76
2022/12/08 00:19:31;;;;;;;13.52;10.18;;;;;;;17.69;57.52;98758.03;4899285;29;20434;-77
2022/12/08 00:21:57;;;;;;;12.43;10.13;;;;;;;17.69;57.79;98764.13;4899085;29;20058;-76
2022/12/08 00:24:28;;;;;;;13.80;9.35;;;;;;;17.66;57.99;98753.78;4905097;29;20512;-77
2022/12/08 00:26:53;;;;;;;12.93;10.00;;;;;;;17.67;57.79;98758.13;4900561;29;20115;-76
2022/12/08 00:29:18;;;;;;;12.00;9.45;;;;;;;17.68;57.91;98764.25;4917949;29;20103;-76
2022/12/08 00:31:44;;;;;;;12.07;9.23;;;;;;;17.69;57.80;98758.88;4917893;29;20109;-77
2022/12/08 00:34:11;;;;;;;13.27;10.13;;;;;;;17.67;57.68;98746.72;4917485;29;20036;-76
2022/12/08 00:36:37;;;;;;;11.27;8.80;;;;;;;17.67;57.65;98746.72;4917839;29;20496;-76
2022/12/08 00:39:02;;;;;;;11.38;9.45;;;;;;;17.65;57.70;98732.75;4917794;29;20055;-77
2022/12/08 00:44:15;;;;;;;14.73;9.68;;;;;;;17.65;57.55;98733.63;4917534;29;20108;-76
2022/12/08 00:46:41;;;;;;;11.68;9.35;;;;;;;17.64;57.38;98731.06;4917089;29;20024;-77
2022/12/08 00:49:06;;;;;;;13.13;9.15;;;;;;;17.63;57.13;98730.19;4917549;29;20032;-76
2022/12/08 00:51:32;;;;;;;12.07;9.02;;;;;;;17.62;57.34;98728.50;4917410;29;20024;-76
2022/12/08 00:53:58;;;;;;;12.60;9.13;;;;;;;17.58;57.52;98733.13;4917163;29;20032;-76
2022/12/08 00:56:23;;;;;;;12.95;9.35;;;;;;;17.55;57.75;98732.44;4915919;29;20087;-76
2022/12/08 00:58:49;;;;;;;11.38;8.80;;;;;;;17.56;57.24;98735.00;4917267;29;20040;-77
2022/12/08 01:01:15;;;;;;;12.98;9.52;;;;;;;17.54;57.51;98728.13;4917270;29;20024;-76
2022/12/08 01:03:41;;;;;;;11.55;8.73;;;;;;;17.55;57.54;98721.91;4917245;29;20055;-76
2022/12/08 01:06:08;;;;;;;11.73;8.90;;;;;;;17.51;57.30;98726.50;4917263;29;20024;-76
2022/12/08 01:08:35;;;;;;;12.27;8.63;;;;;;;17.52;57.44;98722.06;4917249;29;20032;-76
2022/12/08 01:11:08;;;;;;;10.93;8.80;;;;;;;17.52;57.37;98722.06;4916598;29;20027;-76
2022/12/08 01:13:34;;;;;;;13.82;9.15;;;;;;;17.51;57.49;98717.72;4916996;29;20036;-75
2022/12/08 01:16:00;;;;;;;10.63;8.00;;;;;;;17.50;57.26;98723.94;4916827;29;20051;-76
2022/12/08 01:18:26;;;;;;;11.32;8.50;;;;;;;17.49;57.37;98716.97;4917078;29;20052;-76
2022/12/08 01:20:52;;;;;;;11.55;8.90;;;;;;;17.49;57.36;98716.97;4916797;29;20038;-75
2022/12/08 01:23:17;;;;;;;11.60;8.80;;;;;;;17.45;57.29;98717.16;4916782;29;20107;-75
2022/12/08 01:25:42;;;;;;;9.85;7.57;;;;;;;17.42;57.24;98714.69;4916423;29;20083;-76
2022/12/08 01:28:08;;;;;;;12.05;8.30;;;;;;;17.42;57.28;98717.34;4916861;29;20088;-76
2022/12/08 01:30:33;;;;;;;10.18;8.35;;;;;;;17.40;57.37;98710.44;4916872;29;20107;-76
2022/12/08 01:32:59;;;;;;;10.95;8.23;;;;;;;17.36;57.64;98712.41;4916708;29;20465;-76
2022/12/08 01:35:24;;;;;;;10.90;8.60;;;;;;;17.40;57.37;98713.97;4916774;29;20025;-76
2022/12/08 01:37:50;;;;;;;10.82;8.73;;;;;;;17.35;57.07;98710.72;4915538;29;20499;-76
2022/12/08 01:40:16;;;;;;;11.27;8.35;;;;;;;17.39;57.38;98712.22;4915092;29;20099;-77
2022/12/08 01:42:41;;;;;;;9.60;7.85;;;;;;;17.35;57.42;98701.97;4916995;29;20481;-75
2022/12/08 01:45:28;;;;;;;11.20;8.32;;;;;;;17.34;57.57;98697.63;4916750;29;20051;-77
2022/12/08 01:48:01;;;;;;;10.30;8.23;;;;;;;17.34;57.12;98703.72;4916807;29;20111;-76
2022/12/08 01:50:28;;;;;;;11.35;8.50;;;;;;;17.35;57.29;98699.31;4899544;29;20493;-76
2022/12/08 01:53:01;;;;;;;12.70;8.38;;;;;;;17.34;57.05;98703.72;4916052;29;20118;-76
2022/12/08 01:55:34;;;;;;;11.65;8.35;;;;;;;17.32;57.27;98695.06;4916464;29;20032;-77
2022/12/08 01:58:04;;;;;;;11.00;8.35;;;;;;;17.30;57.47;98696.97;4899600;29;20445;-76
2022/12/08 02:00:30;;;;;;;11.23;8.18;;;;;;;17.32;56.92;98697.72;4899328;29;20489;-76
2022/12/08 02:03:07;;;;;;;12.15;8.38;;;;;;;17.30;57.29;98692.50;4916486;29;20031;-76
2022/12/08 02:05:37;;;;;;;11.05;8.18;;;;;;;17.34;57.04;98695.81;4899476;29;20123;-76
2022/12/08 02:08:06;;;;;;;10.95;7.45;;;;;;;17.31;56.97;98693.38;4916194;29;20083;-76
2022/12/08 02:10:34;;;;;;;9.88;7.63;;;;;;;17.29;57.48;98695.25;4916345;29;20020;-75
2022/12/08 02:13:01;;;;;;;9.98;7.72;;;;;;;17.30;57.23;98691.69;4916203;29;20020;-75
2022/12/08 02:16:05;;;;;;;10.45;7.50;;;;;;;17.33;57.02;98690.66;4916334;29;20080;-76
2022/12/08 02:18:46;;;;;;;11.18;7.72;;;;;;;17.33;56.92;98675.66;4914211;29;20512;-76
2022/12/08 02:21:20;;;;;;;10.43;7.47;;;;;;;17.30;56.95;98675.84;4899169;29;20480;-76
2022/12/08 02:24:09;;;;;;;10.30;8.25;;;;;;;17.29;57.11;98676.81;4916053;29;20091;-75
2022/12/08 02:27:03;;;;;;;10.85;7.75;;;;;;;17.30;57.11;98678.50;4916140;29;20481;-75
2022/12/08 02:29:37;;;;;;;10.23;7.55;;;;;;;17.27;57.01;98671.63;4918815;29;20568;-76
2022/12/08 02:32:29;;;;;;;10.13;7.85;;;;;;;17.25;56.85;98656.81;4903087;29;20051;-76
2022/12/08 02:34:57;;;;;;;9.75;7.40;;;;;;;17.25;56.83;98656.81;4880177;29;20037;-75
2022/12/08 02:37:31;;;;;;;10.40;7.75;;;;;;;17.26;57.12;98663.78;4880003;29;20049;-75
2022/12/08 02:40:19;;;;;;;11.18;8.25;;;;;;;17.23;56.97;98649.00;4880273;29;20045;-76
2022/12/08 02:43:13;;;;;;;10.63;7.80;;;;;;;17.24;57.08;98650.69;4880147;29;20533;-76
2022/12/08 02:45:52;;;;;;;9.10;6.72;;;;;;;17.26;57.12;98642.69;4880091;29;20518;-74
2022/12/08 02:48:17;;;;;;;9.52;7.40;;;;;;;17.23;57.04;98648.16;4879869;29;20092;-76
2022/12/08 02:50:43;;;;;;;9.02;6.97;;;;;;;17.26;57.20;98643.56;4879127;29;20025;-76
2022/12/08 02:53:09;;;;;;;10.27;7.50;;;;;;;17.24;56.75;98640.13;4879755;29;20045;-76
2022/12/08 02:56:03;;;;;;;9.77;7.55;;;;;;;17.22;57.00;98641.16;4879760;29;20029;-76
2022/12/08 02:58:35;;;;;;;9.07;6.93;;;;;;;17.21;56.79;98627.16;4824154;29;20072;-77
2022/12/08 03:01:13;;;;;;;9.07;6.78;;;;;;;17.23;56.67;98627.06;4824307;29;20061;-76
2022/12/08 03:03:49;;;;;;;9.40;6.68;;;;;;;17.17;56.91;98628.25;4824113;29;20411;-76
2022/12/08 03:06:29;;;;;;;11.00;7.22;;;;;;;17.18;56.72;98624.69;4823926;29;20189;-76
2022/12/08 03:09:09;;;;;;;10.23;6.85;;;;;;;17.17;56.71;98628.25;4824037;29;20087;-76
2022/12/08 03:11:48;;;;;;;8.75;7.30;;;;;;;17.16;56.87;98622.13;4837502;29;20121;-76
2022/12/08 03:14:16;;;;;;;9.13;6.63;;;;;;;17.17;56.76;98610.66;4860955;29;20040;-75
2022/12/08 03:16:46;;;;;;;10.00;7.22;;;;;;;17.15;56.56;98601.97;4861008;29;20076;-76
2022/12/08 03:19:36;;;;;;;9.60;7.50;;;;;;;17.15;56.87;98612.53;4860716;29;20124;-75
2022/12/08 03:22:03;;;;;;;9.35;6.63;;;;;;;17.10;56.64;98598.75;4860831;29;20392;-76
2022/12/08 03:24:37;;;;;;;9.75;6.75;;;;;;;17.12;56.84;98585.50;4860718;29;20057;-76
2022/12/08 03:27:07;;;;;;;8.68;6.28;;;;;;;17.12;56.81;98589.00;4860930;29;20038;-76
2022/12/08 03:29:33;;;;;;;8.38;6.75;;;;;;;17.10;56.75;98584.75;4860667;29;20145;-76
2022/12/08 03:32:26;;;;;;;9.70;6.75;;;;;;;17.10;56.74;98580.31;4860736;29;20117;-76
2022/12/08 03:34:54;;;;;;;9.38;6.63;;;;;;;17.09;56.72;98583.88;4880565;29;20040;-76
2022/12/08 03:37:20;;;;;;;9.25;6.57;;;;;;;17.13;56.80;98589.81;4918866;29;20059;-76
2022/12/08 03:39:46;;;;;;;8.00;6.35;;;;;;;17.08;56.48;98582.19;4918517;29;20442;-76
2022/12/08 03:42:11;;;;;;;7.80;5.78;;;;;;;17.11;56.77;98581.16;4918790;29;20040;-76
2022/12/08 03:44:36;;;;;;;8.23;6.15;;;;;;;17.09;56.50;98573.34;4918742;29;20084;-75
2022/12/08 03:47:02;;;;;;;8.95;6.95;;;;;;;17.09;56.63;98568.06;4915679;29;20453;-76
2022/12/08 03:49:27;;;;;;;8.90;6.72;;;;;;;17.06;56.67;98563.00;4918001;29;20039;-75
2022/12/08 03:51:53;;;;;;;9.57;6.47;;;;;;;17.10;56.67;98561.03;4918556;29;20103;-76
2022/12/08 03:54:18;;;;;;;8.73;6.25;;;;;;;17.07;56.80;98559.41;4918606;29;20036;-75
2022/12/08 03:56:44;;;;;;;7.75;5.75;;;;;;;17.09;56.96;98551.44;4918590;29;20028;-76
2022/12/08 03:59:09;;;;;;;8.32;5.90;;;;;;;17.08;56.50;98545.28;4918395;29;20032;-77
2022/12/08 04:01:35;;;;;;;9.00;6.35;;;;;;;17.06;56.59;98552.44;4918389;29;20036;-76
2022/12/08 04:04:00;;;;;;;8.60;5.90;;;;;;;17.06;56.52;98556.88;4918050;29;20366;-75
2022/12/08 04:06:26;;;;;;;8.50;5.95;;;;;;;17.03;56.67;98558.75;4901411;29;20028;-76
2022/12/08 04:08:52;;;;;;;9.57;5.68;;;;;;;17.03;56.63;98557.88;4918267;29;20035;-76
2022/12/08 04:11:18;;;;;;;8.57;5.72;;;;;;;17.03;56.91;98563.16;4918112;29;20500;-75
2022/12/08 04:13:44;;;;;;;9.80;5.82;;;;;;;17.01;56.75;98549.19;4918159;29;20055;-76
2022/12/08 04:16:16;;;;;;;8.07;5.85;;;;;;;17.02;56.78;98550.91;4918207;29;20039;-76
2022/12/08 04:18:41;;;;;;;7.53;5.65;;;;;;;17.03;56.80;98542.94;4917736;29;20481;-76
2022/12/08 04:21:06;;;;;;;8.20;5.75;;;;;;;17.04;56.48;98543.78;4918096;29;20047;-76
2022/12/08 04:23:32;;;;;;;8.13;5.88;;;;;;;17.03;56.40;98536.81;4917863;29;20056;-75
2022/12/08 04:25:57;;;;;;;7.82;5.60;;;;;;;17.00;56.75;98536.97;4917830;29;20048;-76
2022/12/08 04:28:23;;;;;;;7.80;5.53;;;;;;;16.98;56.96;98533.56;4917961;29;20031;-75
2022/12/08 04:30:48;;;;;;;7.22;5.20;;;;;;;17.00;56.43;98537.81;4917802;29;20028;-75
2022/12/08 04:33:14;;;;;;;7.97;5.63;;;;;;;17.02;56.54;98530.69;4900433;29;20160;-76
2022/12/08 04:35:39;;;;;;;8.77;5.68;;;;;;;16.95;56.84;98533.75;4917727;29;20028;-76
2022/12/08 04:38:05;;;;;;;7.32;5.53;;;;;;;16.98;56.73;98538.81;4917717;29;20477;-76
2022/12/08 04:40:30;;;;;;;7.70;5.60;;;;;;;16.96;56.71;98530.19;4917677;29;20035;-76
2022/12/08 04:42:56;;;;;;;7.82;5.82;;;;;;;16.97;56.72;98526.59;4917585;29;20111;-76
2022/12/08 04:45:21;;;;;;;6.20;4.85;;;;;;;16.96;56.81;98535.44;4917669;29;20032;-76
2022/12/08 04:47:47;;;;;;;6.00;4.68;;;;;;;16.95;56.46;98525.84;4917283;29;20028;-76
2022/12/08 04:50:12;;;;;;;7.00;4.95;;;;;;;16.95;56.82;98520.56;4917056;29;20148;-75
2022/12/08 04:52:38;;;;;;;6.75;5.07;;;;;;;16.92;56.78;98519.81;4916730;29;20038;-76
2022/12/08 04:55:04;;;;;;;6.90;4.95;;;;;;;16.96;56.67;98519.63;4917469;29;20127;-76
2022/12/08 04:57:29;;;;;;;8.93;5.80;;;;;;;16.96;56.73;98520.50;4917436;29;20039;-76
2022/12/08 04:59:54;;;;;;;7.00;5.00;;;;;;;16.91;56.49;98504.94;4917248;29;20032;-75
2022/12/08 05:02:20;;;;;;;7.13;5.05;;;;;;;16.91;56.46;98507.56;4917116;29;20031;-76
2022/12/08 05:04:45;;;;;;;7.25;5.10;;;;;;;16.91;56.77;98502.28;4917161;29;20024;-75
2022/12/08 05:07:11;;;;;;;7.03;5.30;;;;;;;16.91;56.63;98507.56;4917228;29;20067;-75
2022/12/08 05:09:36;;;;;;;7.60;4.72;;;;;;;16.91;56.63;98506.75;4917126;29;20027;-76
2022/12/08 05:12:03;;;;;;;6.40;4.68;;;;;;;16.89;56.85;98498.91;4917098;29;20023;-76
2022/12/08 05:14:28;;;;;;;7.32;5.10;;;;;;;16.88;56.59;98491.97;4916849;29;20032;-76
2022/12/08 05:16:53;;;;;;;7.03;5.05;;;;;;;16.87;56.43;98490.25;4916887;29;20043;-76
2022/12/08 05:19:19;;;;;;;7.03;4.95;;;;;;;16.89;56.70;98492.78;4899994;29;20042;-76
2022/12/08 05:21:45;;;;;;;7.68;5.18;;;;;;;16.87;56.61;98484.13;4917107;29;20035;-76
2022/12/08 05:24:10;;;;;;;6.75;4.90;;;;;;;16.88;56.84;98484.06;4916815;29;20568;-76
2022/12/08 05:26:36;;;;;;;7.07;4.75;;;;;;;16.88;56.70;98481.41;4914181;29;20031;-76
2022/12/08 05:29:01;;;;;;;6.80;4.93;;;;;;;16.88;56.43;98484.06;4915179;29;20024;-76
2022/12/08 05:31:27;;;;;;;6.68;4.65;;;;;;;16.88;56.51;98475.28;4904231;29;20091;-76
2022/12/08 05:33:52;;;;;;;8.02;5.43;;;;;;;16.85;56.65;98478.94;4890779;29;20527;-75
2022/12/08 05:36:18;;;;;;;6.22;4.32;;;;;;;16.87;56.71;98485.00;4890844;29;20035;-76
2022/12/08 05:38:45;;;;;;;6.10;4.63;;;;;;;16.84;56.46;98485.16;4906853;29;20032;-76
2022/12/08 05:41:14;;;;;;;6.90;4.60;;;;;;;16.81;56.68;98482.72;4904543;29;20028;-76
2022/12/08 05:43:39;;;;;;;6.72;4.68;;;;;;;16.84;56.38;98487.78;4890849;29;20040;-76
2022/12/08 05:46:06;;;;;;;6.45;4.45;;;;;;;16.86;56.65;98483.28;4914170;29;20024;-76
2022/12/08 05:48:31;;;;;;;6.65;4.72;;;;;;;16.84;56.41;98479.91;4905083;29;20039;-76
2022/12/08 05:50:57;;;;;;;6.25;4.43;;;;;;;16.83;56.49;98467.66;4899588;29;20035;-76
2022/12/08 05:53:22;;;;;;;6.00;4.13;;;;;;;16.84;56.48;98469.34;4916438;29;20024;-75
2022/12/08 05:55:48;;;;;;;6.45;4.68;;;;;;;16.81;56.47;98469.56;4917460;29;20024;-75
2022/12/08 05:58:18;;;;;;;6.97;4.60;;;;;;;16.82;56.71;98483.56;4911653;29;20038;-75
2022/12/08 06:00:45;;;;;;;6.10;4.07;;;;;;;16.81;56.76;98476.59;4899617;29;20056;-78
2022/12/08 06:03:12;;;;;;;5.82;3.97;;;;;;;16.80;56.37;98467.84;4899038;29;20473;-77
2022/12/08 06:05:37;;;;;;;6.03;4.60;;;;;;;16.78;56.61;98470.59;4911299;29;20056;-77
2022/12/08 06:08:03;;;;;;;6.57;4.35;;;;;;;16.83;56.37;98480.84;4910862;29;20066;-77
2022/12/08 06:10:29;;;;;;;6.30;4.40;;;;;;;16.81;56.71;98480.09;4904854;29;20068;-77
2022/12/08 06:12:54;;;;;;;6.43;3.97;;;;;;;16.76;56.51;98477.69;4905655;29;20107;-77
2022/12/08 06:15:20;;;;;;;6.82;4.40;;;;;;;16.82;56.71;98471.25;4905749;29;20029;-77
2022/12/08 06:17:45;;;;;;;7.65;4.63;;;;;;;16.78;56.43;98464.44;4904529;29;20549;-76
2022/12/08 06:20:11;;;;;;;6.20;4.20;;;;;;;16.79;56.70;98468.78;4906022;29;20028;-77
2022/12/08 06:22:37;;;;;;;7.68;5.22;;;;;;;16.79;56.28;98463.50;4918315;29;20389;-75
2022/12/08 06:25:03;;;;;;;6.05;4.20;;;;;;;16.78;56.30;98456.53;4926017;29;20048;-76
2022/12/08 06:27:29;;;;;;;6.28;4.40;;;;;;;16.78;56.58;98446.00;4917710;29;20488;-75
2022/12/08 06:29:54;;;;;;;6.50;4.45;;;;;;;16.77;56.36;98434.59;4934362;29;20024;-75
2022/12/08 06:32:20;;;;;;;7.72;5.00;;;;;;;16.77;55.98;98436.41;4935012;29;20107;-76
2022/12/08 06:34:45;;;;;;;7.53;4.45;;;;;;;16.74;56.15;98439.22;4935287;29;20114;-76
2022/12/08 06:37:10;;;;;;;7.25;4.97;;;;;;;16.73;56.07;98429.63;4935209;29;20031;-75
2022/12/08 06:39:36;;;;;;;6.95;4.57;;;;;;;16.73;56.15;98427.00;4934686;29;20433;-76
2022/12/08 06:44:46;;;;;;;8.15;5.30;;;;;;;16.70;56.35;98422.75;4926548;29;20079;-75
2022/12/08 06:47:12;;;;;;;7.47;5.18;;;;;;;16.68;56.35;98416.72;4924346;29;20091;-77
2022/12/08 06:49:37;;;;;;;6.78;4.40;;;;;;;16.74;56.06;98412.88;4918758;29;20051;-76
2022/12/08 06:52:03;;;;;;;8.73;5.35;;;;;;;16.71;56.35;98410.44;4919653;29;20028;-75
2022/12/08 06:54:28;;;;;;;7.35;5.00;;;;;;;16.69;56.22;98404.41;4908227;29;20124;-75
2022/12/08 06:56:53;;;;;;;7.78;5.18;;;;;;;16.67;55.89;98411.56;4923775;29;20051;-78
2022/12/08 06:59:19;;;;;;;6.95;4.95;;;;;;;16.66;56.06;98412.50;4924881;29;20499;-75
2022/12/08 07:01:45;;;;;;;6.63;4.72;;;;;;;16.66;56.44;98415.97;4925548;29;20024;-75
2022/12/08 07:04:10;;;;;;;8.40;5.10;;;;;;;16.62;56.64;98412.66;4923790;29;20024;-74
2022/12/08 07:06:36;;;;;;;8.82;6.15;;;;;;;16.60;57.49;98422.44;4925191;29;20404;-75
2022/12/08 07:09:02;;;;;;;9.50;6.00;;;;;;;16.63;57.28;98424.91;4925191;29;20028;-75
2022/12/08 07:11:27;;;;;;;10.57;6.45;;;;;;;16.64;57.71;98416.06;4921031;29;20488;-75
2022/12/08 07:13:55;;;;;;;11.50;5.88;;;;;;;16.64;57.97;98420.47;4925383;29;20026;-75
2022/12/08 07:16:21;;;;;;;9.88;5.93;;;;;;;16.66;57.64;98417.75;4928450;29;20057;-76
2022/12/08 07:18:46;;;;;;;9.75;6.15;;;;;;;16.66;57.89;98412.50;4927394;29;20189;-76
2022/12/08 07:21:13;;;;;;;10.88;6.50;;;;;;;16.66;57.90;98404.59;4924152;29;20035;-75
2022/12/08 07:23:39;;;;;;;10.13;6.65;;;;;;;16.63;58.07;98409.13;4925813;29;20070;-75
2022/12/08 07:26:07;;;;;;;10.88;6.55;;;;;;;16.66;58.20;98409.84;4926722;29;20020;-75
2022/12/08 07:28:35;;;;;;;12.15;6.85;;;;;;;16.66;58.50;98402.78;4928401;29;20024;-75
2022/12/08 07:31:00;;;;;;;12.68;6.47;;;;;;;16.68;58.44;98418.50;4927964;29;20389;-75
2022/12/08 07:33:26;;;;;;;11.10;7.28;;;;;;;16.68;58.50;98405.34;4926706;29;20031;-75
2022/12/08 07:35:59;;;;;;;11.48;6.55;;;;;;;16.67;58.29;98403.66;4922499;29;20028;-75
2022/12/08 07:38:25;;;;;;;10.13;6.57;;;;;;;16.66;58.18;98405.41;4911898;29;20119;-75
2022/12/08 07:40:52;;;;;;;9.35;6.60;;;;;;;16.67;58.22;98406.28;4926297;29;20023;-74
2022/12/08 07:43:17;;;;;;;11.20;6.57;;;;;;;16.65;58.20;98416.91;4924934;29;20084;-75
2022/12/08 07:45:43;;;;;;;10.07;6.22;;;;;;;16.68;57.96;98410.59;4926453;29;20020;-75
2022/12/08 07:48:08;;;;;;;10.05;6.22;;;;;;;16.67;58.23;98408.91;4923951;29;20039;-75
2022/12/08 07:50:34;;;;;;;10.07;6.15;;;;;;;16.67;57.98;98411.56;4926668;29;20552;-75
2022/12/08 07:53:00;;;;;;;10.35;6.82;;;;;;;16.68;57.87;98411.47;4920535;29;20063;-74
2022/12/08 07:55:25;;;;;;;10.68;6.63;;;;;;;16.69;57.58;98412.28;4920592;29;20023;-75
2022/12/08 07:57:51;;;;;;;10.68;6.60;;;;;;;16.69;57.86;98409.66;4926423;29;20071;-75
2022/12/08 08:00:18;;;;;;;10.10;7.15;;;;;;;16.64;57.50;98405.53;4909276;29;20507;-75
2022/12/08 08:02:43;;;;;;;11.68;6.55;;;;;;;16.67;57.42;98401.00;4920507;29;20382;-75
2022/12/08 08:05:11;;;;;;;12.63;6.82;;;;;;;16.67;57.54;98398.38;4923027;29;20051;-74
2022/12/08 08:07:36;;;;;;;11.82;7.13;;;;;;;16.66;57.39;98396.69;4926010;29;20020;-74
2022/12/08 08:10:02;;;;;;;9.05;6.10;;;;;;;16.68;57.33;98395.66;4927587;29;20045;-70
2022/12/08 08:12:28;;;;;;;10.68;6.32;;;;;;;16.66;57.64;98404.59;4918311;29;20020;-75
2022/12/08 08:14:53;;;;;;;10.25;6.57;;;;;;;16.66;57.56;98405.41;4918022;29;20039;-76
2022/12/08 08:17:19;;;;;;;10.48;7.40;;;;;;;16.61;57.91;98400.44;4918204;29;20025;-76
2022/12/08 08:19:45;;;;;;;9.90;6.10;;;;;;;16.63;57.64;98390.69;4918136;29;20487;-75
2022/12/08 08:22:10;;;;;;;10.52;6.70;;;;;;;16.64;58.03;98388.88;4917988;29;20130;-75
2022/12/08 08:24:36;;;;;;;10.35;6.93;;;;;;;16.65;57.61;98385.28;4917350;29;20054;-75
2022/12/08 08:27:01;;;;;;;10.63;6.30;;;;;;;16.63;57.49;98392.44;4917134;29;20083;-75
2022/12/08 08:29:27;;;;;;;11.52;6.32;;;;;;;16.63;57.60;98388.03;4917897;29;20492;-76
2022/12/08 08:31:52;;;;;;;10.48;6.50;;;;;;;16.60;57.57;98392.63;4917871;29;20103;-75
2022/12/08 08:34:18;;;;;;;9.48;6.72;;;;;;;16.60;57.70;98393.47;4917538;29;20035;-75
2022/12/08 08:36:43;;;;;;;10.13;6.20;;;;;;;16.61;57.05;98395.16;4917665;29;20028;-75
2022/12/08 08:39:08;;;;;;;10.80;6.78;;;;;;;16.57;57.18;98388.38;4917066;29;20024;-75
2022/12/08 08:41:34;;;;;;;9.13;6.28;;;;;;;16.60;56.99;98388.22;4917564;29;20032;-75
2022/12/08 08:44:00;;;;;;;10.63;7.18;;;;;;;16.57;57.12;98388.38;4917624;29;20028;-75
2022/12/08 08:46:25;;;;;;;10.93;7.03;;;;;;;16.60;56.98;98393.47;4917719;29;20487;-75
2022/12/08 08:48:51;;;;;;;8.93;6.28;;;;;;;16.57;57.10;98383.13;4917517;29;20702;-75
2022/12/08 08:51:16;;;;;;;9.63;6.07;;;;;;;16.59;56.90;98391.78;4917391;29;20027;-75
2022/12/08 08:53:42;;;;;;;10.05;5.72;;;;;;;16.59;57.00;98389.16;4917039;29;20422;-76
2022/12/08 08:56:12;;;;;;;10.57;7.20;;;;;;;16.57;57.01;98382.28;4915803;29;20087;-75
2022/12/08 08:58:39;;;;;;;8.98;6.03;;;;;;;16.56;56.96;98381.44;4915336;29;20038;-75
2022/12/08 09:01:04;;;;;;;10.18;6.57;;;;;;;16.56;56.73;98370.88;4915747;29;20036;-75
2022/12/08 09:03:30;;;;;;;9.43;6.28;;;;;;;16.57;57.10;98374.38;4917295;29;20785;-76
2022/12/08 09:05:56;;;;;;;8.93;6.50;;;;;;;16.58;56.92;98378.72;4917357;29;20016;-75
2022/12/08 09:08:22;;;;;;;8.85;6.03;;;;;;;16.54;57.26;98382.44;4917019;29;20028;-75
2022/12/08 09:10:47;;;;;;;9.63;6.10;;;;;;;16.55;56.90;98385.00;4917163;29;20119;-75
2022/12/08 09:13:13;;;;;;;10.93;5.93;;;;;;;16.54;56.87;98387.72;4917134;29;20107;-75
2022/12/08 09:15:39;;;;;;;8.23;6.00;;;;;;;16.56;56.95;98381.44;4917129;29;20582;-75
2022/12/08 09:18:07;;;;;;;10.10;5.90;;;;;;;16.55;56.93;98374.47;4917236;29;20036;-75
2022/12/08 09:20:34;;;;;;;9.05;5.80;;;;;;;16.55;56.74;98371.84;4915820;29;20028;-75
2022/12/08 09:23:00;;;;;;;9.00;5.85;;;;;;;16.55;56.61;98353.41;4915742;29;20031;-75
2022/12/08 09:25:27;;;;;;;10.10;6.13;;;;;;;16.53;56.71;98350.03;4915917;29;20135;-75
2022/12/08 09:27:52;;;;;;;11.43;5.82;;;;;;;16.54;56.58;98343.81;4916875;29;20038;-75
2022/12/08 09:30:18;;;;;;;8.13;6.20;;;;;;;16.54;56.53;98349.06;4916465;29;20653;-75
2022/12/08 09:32:43;;;;;;;9.82;6.70;;;;;;;16.54;56.68;98350.84;4915771;29;20111;-75
2022/12/08 09:35:09;;;;;;;8.60;5.55;;;;;;;16.51;56.42;98347.47;4916810;29;20451;-76
2022/12/08 09:37:34;;;;;;;8.10;5.90;;;;;;;16.52;56.74;98348.34;4916101;29;20044;-75
2022/12/08 09:40:00;;;;;;;9.32;6.05;;;;;;;16.53;56.81;98355.28;4916223;29;20028;-76
2022/12/08 09:42:31;;;;;;;9.13;5.80;;;;;;;16.54;56.59;98345.59;4915840;29;20036;-75
2022/12/08 09:45:04;;;;;;;9.15;5.78;;;;;;;16.53;56.31;98342.13;4916525;29;20057;-75
2022/12/08 09:47:42;;;;;;;9.30;5.80;;;;;;;16.53;56.52;98331.59;4894956;29;20050;-75
2022/12/08 09:50:47;;;;;;;8.13;5.70;;;;;;;16.49;56.31;98332.69;4896673;29;20036;-75
2022/12/08 09:53:24;;;;;;;7.15;4.93;;;;;;;16.49;56.70;98319.53;4893704;29;20032;-74
2022/12/08 09:55:57;;;;;;;9.82;5.38;;;;;;;16.49;56.54;98309.00;4894527;29;20222;-75
2022/12/08 09:58:47;;;;;;;8.02;5.32;;;;;;;16.49;56.79;98316.91;4894083;29;20033;-75
2022/12/08 10:01:13;;;;;;;7.10;4.80;;;;;;;16.50;56.55;98313.31;4893558;29;20041;-76
2022/12/08 10:03:39;;;;;;;8.00;5.43;;;;;;;16.47;56.42;98329.31;4893630;29;20540;-76
2022/12/08 10:06:35;;;;;;;7.47;4.80;;;;;;;16.46;56.78;98325.84;4893181;29;20112;-75
2022/12/08 10:09:25;;;;;;;7.97;5.10;;;;;;;16.50;56.60;98318.59;4893883;29;20037;-75
2022/12/08 10:12:09;;;;;;;7.05;4.55;;;;;;;16.49;56.43;98306.38;4893429;29;20029;-75
2022/12/08 10:14:38;;;;;;;7.07;4.65;;;;;;;16.47;56.45;98292.47;4893442;29;20036;-76
2022/12/08 10:17:12;;;;;;;8.13;4.55;;;;;;;16.46;56.68;98288.13;4895179;29;20141;-74
2022/12/08 10:19:40;;;;;;;7.05;4.50;;;;;;;16.43;56.23;98297.06;4895244;29;20040;-75
2022/12/08 10:22:21;;;;;;;7.40;4.38;;;;;;;16.47;56.35;98305.63;4894287;29;20028;-75
2022/12/08 10:25:20;;;;;;;6.43;4.35;;;;;;;16.46;56.32;98311.84;4894346;29;20056;-75
2022/12/08 10:27:50;;;;;;;6.95;4.72;;;;;;;16.44;56.62;98313.69;4924143;29;20095;-75
2022/12/08 10:30:18;;;;;;;6.53;4.32;;;;;;;16.48;56.68;98302.06;4934237;29;20036;-75
2022/12/08 10:32:46;;;;;;;7.68;4.68;;;;;;;16.46;56.38;98291.59;4934486;29;20039;-75
2022/12/08 10:35:14;;;;;;;6.38;4.35;;;;;;;16.45;56.18;98312.75;4934078;29;20035;-75
2022/12/08 10:37:40;;;;;;;6.35;4.20;;;;;;;16.45;56.26;98326.78;4933268;29;20140;-75
2022/12/08 10:40:16;;;;;;;7.47;4.18;;;;;;;16.46;56.34;98336.38;4919811;29;20040;-75
2022/12/08 10:42:47;;;;;;;6.13;4.18;;;;;;;16.46;56.46;98327.63;4915343;29;20032;-74
2022/12/08 10:45:18;;;;;;;5.88;3.83;;;;;;;16.47;56.56;98310.91;4915120;29;20039;-75
2022/12/08 10:47:56;;;;;;;6.53;4.22;;;;;;;16.47;56.53;98318.78;4915611;29;20032;-75
2022/12/08 10:50:33;;;;;;;6.53;4.05;;;;;;;16.48;56.20;98299.41;4916368;29;20032;-75
2022/12/08 10:53:11;;;;;;;6.07;3.65;;;;;;;16.49;56.48;98296.69;4918737;29;20056;-75
2022/12/08 10:55:55;;;;;;;7.40;4.20;;;;;;;16.50;56.24;98285.22;4918197;29;20391;-75
2022/12/08 10:58:41;;;;;;;6.75;3.67;;;;;;;16.49;56.43;98269.50;4918259;29;20032;-74
2022/12/08 11:01:12;;;;;;;7.57;4.40;;;;;;;16.44;56.34;98268.94;4918580;29;20548;-75
2022/12/08 11:03:44;;;;;;;6.93;4.57;;;;;;;16.47;56.10;98266.97;4918592;29;20425;-74
2022/12/08 11:06:15;;;;;;;6.78;4.00;;;;;;;16.46;56.03;98264.44;4918218;29;20034;-74
2022/12/08 11:08:48;;;;;;;5.65;3.85;;;;;;;16.49;56.10;98248.44;4919294;29;20039;-74
2022/12/08 11:11:13;;;;;;;7.72;3.88;;;;;;;16.46;56.15;98243.38;4919407;29;20024;-75
2022/12/08 11:13:40;;;;;;;6.57;3.65;;;;;;;16.48;56.33;98229.16;4902118;29;20389;-75
2022/12/08 11:16:07;;;;;;;6.22;3.70;;;;;;;16.47;56.06;98218.72;4919370;29;20032;-74
2022/12/08 11:18:41;;;;;;;6.05;4.00;;;;;;;16.42;55.93;98219.00;4918909;29;20465;-75
2022/12/08 11:21:13;;;;;;;5.55;3.13;;;;;;;16.41;56.14;98201.50;4918990;29;20492;-75
2022/12/08 11:23:41;;;;;;;5.57;3.70;;;;;;;16.44;55.93;98187.31;4917580;29;20024;-75
2022/12/08 11:26:14;;;;;;;6.45;3.85;;;;;;;16.44;55.92;98188.16;4917536;29;20461;-75
2022/12/08 11:28:40;;;;;;;6.03;3.70;;;;;;;16.44;55.93;98195.22;4900798;29;20408;-75
2022/12/08 11:31:39;;;;;;;4.85;3.00;;;;;;;16.46;56.10;98201.25;4918120;29;20034;-75
2022/12/08 11:34:08;;;;;;;4.95;2.85;;;;;;;16.46;55.92;98190.72;4910251;29;20075;-75
2022/12/08 11:36:34;;;;;;;5.80;3.00;;;;;;;16.42;56.27;98190.03;4917863;29;20032;-75
2022/12/08 11:39:03;;;;;;;5.75;3.28;;;;;;;16.45;55.82;98199.53;4918503;29;20032;-74
2022/12/08 11:41:47;;;;;;;5.18;3.25;;;;;;;16.45;55.91;98178.47;4917955;29;20511;-75
2022/12/08 11:44:41;;;;;;;6.07;3.13;;;;;;;16.44;56.01;98171.50;4917589;29;20498;-75
2022/12/08 11:47:18;;;;;;;5.28;3.50;;;;;;;16.45;55.62;98174.06;4917263;29;20568;-74